AKDT,Max TemperatureF,Mean TemperatureF,Min TemperatureF,Max Dew PointF,MeanDew PointF,Min DewpointF,Max Humidity, Mean Humidity, Min Humidity, Max Sea Level PressureIn, Mean Sea Level PressureIn, Min Sea Level PressureIn, Max VisibilityMiles, Mean VisibilityMiles, Min VisibilityMiles, Max Wind SpeedMPH, Mean Wind SpeedMPH, Max Gust SpeedMPH,PrecipitationIn, CloudCover, Events, WindDirDegrees
2011-10-1,48,45,42,41,37,34,86,73,61,29.62,29.58,29.51,10,10,9,13,4,,0.08,7,Rain,340
2011-10-2,48,45,42,41,39,36,86,82,77,29.57,29.52,29.47,10,10,5,13,3,22,0.32,8,Rain,257
2011-10-3,52,46,39,40,37,35,89,74,53,29.53,29.48,29.44,10,10,8,6,1,,0.00,4,,312
2011-10-4,51,44,36,36,33,31,86,66,50,29.57,29.54,29.50,10,10,10,7,2,,0.00,3,,323
2011-10-5,48,42,35,38,35,31,85,74,59,29.57,29.49,29.36,10,10,10,12,2,,0.00,5,,327
2011-10-6,48,44,41,41,38,36,85,77,66,29.54,29.41,29.34,10,10,10,15,5,,0.06,7,Rain,327
2011-10-7,48,46,43,41,40,39,89,81,71,29.77,29.66,29.55,10,10,5,6,1,,0.00,8,Rain,7
2011-10-8,52,46,41,40,38,34,89,79,59,29.79,29.74,29.60,10,9,2,6,0,,0.01,6,Rain,349
2011-10-9,48,42,35,36,33,28,89,76,52,29.60,29.56,29.54,10,9,0,7,2,,0.00,3,Fog,28
2011-10-10,50,42,34,32,30,27,85,70,41,29.62,29.57,29.51,10,10,9,7,1,,0.00,2,,69
2011-10-11,46,38,30,27,24,19,72,57,42,29.70,29.58,29.52,10,10,9,8,3,,0.00,1,Snow,22
2011-10-12,44,37,30,22,20,17,66,51,34,30.00,29.89,29.72,10,10,9,8,3,,0.00,0,Snow,119
2011-10-13,43,39,35,29,25,20,67,57,49,30.04,29.98,29.82,10,10,10,9,1,,0.00,8,,11
2011-10-14,46,42,37,36,34,30,82,75,56,29.79,29.50,29.37,10,10,9,14,7,20,0.00,7,Snow,334
2011-10-15,46,42,39,41,38,35,89,81,71,29.62,29.54,29.42,10,10,8,8,3,,0.11,8,Rain,354
2011-10-16,44,42,39,41,37,36,89,83,76,29.82,29.69,29.62,10,10,8,7,2,,0.25,8,Rain,7
2011-10-17,43,40,37,37,35,33,93,81,74,29.91,29.85,29.77,10,9,1,9,5,,0.10,8,Rain-Snow,26
2011-10-18,44,38,33,34,27,21,83,66,47,29.75,29.70,29.67,10,10,9,7,5,,0.00,4,,344
2011-10-19,39,36,33,29,27,24,78,72,60,29.77,29.74,29.72,10,10,10,7,3,,0.00,7,,17
2011-10-20,42,38,35,30,27,24,79,66,55,29.74,29.66,29.53,10,10,10,12,5,,0.00,6,Snow,14
2011-10-21,42,40,37,31,26,24,73,59,51,29.54,29.40,29.34,10,10,10,12,5,,0.01,6,Rain,350
2011-10-22,42,40,37,33,29,25,79,66,51,29.59,29.48,29.38,10,10,10,7,2,,0.00,7,Rain,25
2011-10-23,46,41,37,38,35,32,93,83,73,29.71,29.67,29.59,10,7,2,5,1,,0.04,7,Rain,32
2011-10-24,52,44,37,36,34,30,79,63,48,29.62,29.53,29.37,10,10,5,15,7,26,0.06,7,Rain,164
2011-10-25,52,48,43,38,35,33,82,65,49,29.37,29.02,28.82,10,10,6,13,6,30,0.08,5,Rain,276
2011-10-26,44,39,33,38,31,22,87,70,53,29.57,29.34,29.04,10,9,3,13,5,21,0.31,5,Rain,188
2011-10-27,39,34,30,28,24,20,82,68,53,29.61,29.56,29.45,10,10,9,8,3,,0.00,4,Snow,359
2011-10-28,37,34,30,24,21,19,73,62,52,29.44,29.30,29.19,10,10,9,9,5,,0.00,1,Snow,26
2011-10-29,37,34,32,26,21,18,70,59,48,29.22,29.13,29.06,10,10,9,13,6,20,0.00,5,Snow,30
2011-10-30,37,32,27,31,21,10,87,63,35,29.73,29.47,29.24,10,6,1,14,4,23,0.00,7,Snow,26
2011-10-31,27,23,19,21,18,9,81,73,60,29.74,29.67,29.60,10,6,0,12,6,,0.00,7,Snow,19